Time;durP1;ratioP1;P1;durP2;ratioP2;P2;SDS_P1;SDS_P2;PMS_P1;PMS_P2;Temp;Humidity;BMP_temperature;BMP_pressure;BME280_temperature;BME280_humidity;BME280_pressure;Samples;Min_cycle;Max_cycle;Signal;HPM_P1;HPM_P2
2022/07/01 00:01:49;;;;;;;15.05;12.47;;;;;;;23.18;70.18;98141.17;1719973;83;25445;-63
2022/07/01 00:04:16;;;;;;;17.27;12.43;;;;;;;23.15;70.20;98139.20;1720833;83;25522;-62
2022/07/01 00:06:43;;;;;;;15.28;11.93;;;;;;;23.05;70.53;98140.27;1720848;83;27391;-62
2022/07/01 00:09:09;;;;;;;15.98;12.33;;;;;;;23.03;70.64;98144.69;1720455;83;25665;-63
2022/07/01 00:11:35;;;;;;;15.63;11.80;;;;;;;23.09;70.67;98139.45;1721147;83;25429;-63
2022/07/01 00:14:01;;;;;;;18.10;12.00;;;;;;;23.17;70.44;98140.36;1720947;83;26394;-64
2022/07/01 00:16:27;;;;;;;15.50;12.35;;;;;;;23.20;70.45;98133.14;1720949;83;25611;-62
2022/07/01 00:18:52;;;;;;;15.90;12.70;;;;;;;23.22;70.42;98142.52;1720912;83;27546;-63
2022/07/01 00:21:18;;;;;;;17.35;12.18;;;;;;;23.08;70.32;98140.04;1718164;83;25430;-63
2022/07/01 00:23:45;;;;;;;16.30;12.80;;;;;;;22.92;70.62;98132.20;1760413;81;25724;-63
2022/07/01 00:26:11;;;;;;;17.05;13.85;;;;;;;22.78;70.52;98130.30;1760018;81;25684;-63
2022/07/01 00:28:37;;;;;;;14.35;12.30;;;;;;;22.72;70.73;98130.54;1759992;80;25379;-63
2022/07/01 00:31:03;;;;;;;16.65;13.15;;;;;;;22.59;70.90;98124.66;1760100;81;27444;-64
2022/07/01 00:33:29;;;;;;;15.70;12.95;;;;;;;22.46;71.56;98120.10;1760132;80;25495;-63
2022/07/01 00:35:55;;;;;;;16.10;12.73;;;;;;;22.34;71.42;98123.57;1760143;80;25651;-63
2022/07/01 00:38:21;;;;;;;12.93;11.20;;;;;;;22.31;71.44;98126.55;1760316;80;25640;-63
2022/07/01 00:40:55;;;;;;;16.85;12.65;;;;;;;22.34;71.67;98129.16;1760235;80;25405;-61
2022/07/01 00:43:24;;;;;;;18.67;13.20;;;;;;;22.32;71.34;98134.34;1759820;81;27655;-63
2022/07/01 00:45:52;;;;;;;14.78;12.58;;;;;;;22.24;71.81;98143.93;1759726;81;25715;-63
2022/07/01 00:48:22;;;;;;;15.80;12.80;;;;;;;22.13;71.95;98145.41;1760176;80;25446;-63
2022/07/01 00:50:50;;;;;;;14.73;12.60;;;;;;;22.04;72.51;98146.62;1760113;80;26171;-63
2022/07/01 00:53:17;;;;;;;19.27;12.73;;;;;;;21.98;72.44;98144.05;1759930;80;25456;-63
2022/07/01 00:55:43;;;;;;;16.95;13.08;;;;;;;21.92;72.62;98147.86;1760129;80;28273;-64
2022/07/01 00:58:10;;;;;;;17.50;13.72;;;;;;;21.91;72.44;98154.62;1760036;80;25769;-63
2022/07/01 01:00:40;;;;;;;14.50;12.50;;;;;;;21.92;72.51;98152.05;1760127;81;25572;-62
2022/07/01 01:03:10;;;;;;;16.00;13.13;;;;;;;21.96;72.26;98148.45;1759925;80;25433;-64
2022/07/01 01:05:41;;;;;;;14.23;12.47;;;;;;;22.01;72.08;98144.63;1759926;81;25421;-62
2022/07/01 01:08:13;;;;;;;16.15;12.53;;;;;;;22.05;72.36;98142.62;1760099;81;27560;-63
2022/07/01 01:10:38;;;;;;;16.12;12.47;;;;;;;22.02;72.32;98141.25;1758812;81;25887;-63
2022/07/01 01:13:12;;;;;;;16.62;13.22;;;;;;;22.00;72.56;98136.67;1742745;81;25453;-63
2022/07/01 01:15:46;;;;;;;18.17;12.88;;;;;;;21.94;72.70;98140.48;1760006;80;25695;-62
2022/07/01 01:18:28;;;;;;;18.50;13.28;;;;;;;21.86;73.01;98131.93;1759929;81;25411;-64
2022/07/01 01:21:02;;;;;;;16.55;12.45;;;;;;;21.78;73.53;98142.31;1758898;81;25926;-63
2022/07/01 01:23:28;;;;;;;17.48;13.20;;;;;;;21.72;73.62;98136.33;1728167;83;25655;-62
2022/07/01 01:25:55;;;;;;;16.00;13.32;;;;;;;21.60;74.05;98140.34;1720836;83;25432;-63
2022/07/01 01:28:22;;;;;;;19.15;13.62;;;;;;;21.59;73.88;98136.56;1720639;83;25602;-63
2022/07/01 01:30:48;;;;;;;17.73;12.53;;;;;;;21.60;73.59;98136.16;1721114;83;25478;-66
2022/07/01 01:33:13;;;;;;;15.68;13.50;;;;;;;21.55;74.83;98129.59;1720829;83;26867;-63
2022/07/01 01:35:40;;;;;;;16.15;12.80;;;;;;;21.38;74.66;98130.62;1720852;83;25965;-63
2022/07/01 01:38:06;;;;;;;22.32;13.85;;;;;;;21.28;75.27;98130.84;1720720;83;25610;-62
2022/07/01 01:40:32;;;;;;;16.67;13.50;;;;;;;21.22;75.12;98140.80;1720996;83;25618;-63
2022/07/01 01:42:58;;;;;;;17.15;13.25;;;;;;;21.22;75.58;98137.20;1720900;83;25610;-63
2022/07/01 01:45:25;;;;;;;17.48;13.98;;;;;;;21.15;75.38;98141.59;1720859;83;27442;-63
2022/07/01 01:47:51;;;;;;;18.42;13.62;;;;;;;21.16;75.44;98148.74;1720344;83;25612;-62
2022/07/01 01:50:19;;;;;;;14.73;12.95;;;;;;;21.17;75.42;98147.56;1721091;83;25513;-63
2022/07/01 01:52:46;;;;;;;19.70;13.90;;;;;;;21.17;75.46;98151.75;1720471;83;25457;-64
2022/07/01 01:55:13;;;;;;;20.40;14.15;;;;;;;21.24;75.29;98148.77;1720947;83;25432;-63
2022/07/01 01:57:39;;;;;;;17.30;13.38;;;;;;;21.26;75.15;98151.92;1720699;83;27545;-63
2022/07/01 02:00:08;;;;;;;17.00;13.40;;;;;;;21.29;75.02;98146.95;1720564;83;25848;-63
2022/07/01 02:02:36;;;;;;;16.23;13.25;;;;;;;21.28;75.28;98141.99;1720811;83;25745;-63
2022/07/01 02:05:06;;;;;;;16.80;13.25;;;;;;;21.25;75.26;98139.20;1720448;83;25461;-63
2022/07/01 02:07:32;;;;;;;15.70;13.75;;;;;;;21.19;75.65;98134.63;1720981;83;25425;-63
2022/07/01 02:09:58;;;;;;;14.98;12.53;;;;;;;21.14;76.14;98151.73;1720697;83;28282;-64
2022/07/01 02:12:24;;;;;;;18.32;13.50;;;;;;;21.06;76.53;98150.94;1720777;83;25425;-63
2022/07/01 02:14:50;;;;;;;15.85;13.58;;;;;;;21.00;76.56;98150.55;1720873;83;25699;-64
2022/07/01 02:17:16;;;;;;;17.37;13.25;;;;;;;20.98;76.47;98158.48;1720489;83;25608;-63
2022/07/01 02:19:42;;;;;;;18.10;13.72;;;;;;;20.99;76.23;98152.33;1720849;83;25453;-63
2022/07/01 02:22:08;;;;;;;16.65;13.48;;;;;;;21.08;76.06;98157.50;1713092;82;27515;-64
2022/07/01 02:24:33;;;;;;;14.50;12.88;;;;;;;21.14;75.97;98152.54;1713020;83;25872;-64
2022/07/01 02:27:00;;;;;;;15.35;13.22;;;;;;;21.13;75.88;98155.11;1713020;83;25687;-64
2022/07/01 02:29:26;;;;;;;17.80;12.85;;;;;;;21.14;75.85;98152.54;1713006;83;26104;-64
2022/07/01 02:31:52;;;;;;;16.30;13.18;;;;;;;21.16;75.91;98150.13;1713124;83;25482;-64
2022/07/01 02:34:18;;;;;;;16.10;12.60;;;;;;;21.19;75.74;98156.30;1713054;83;27661;-64
2022/07/01 02:36:44;;;;;;;16.57;12.75;;;;;;;21.19;75.68;98146.55;1713359;83;25406;-63
2022/07/01 02:39:10;;;;;;;17.40;12.40;;;;;;;21.23;75.66;98149.94;1713358;83;25628;-62
2022/07/01 02:42:22;;;;;;;16.60;12.47;;;;;;;21.24;76.15;98147.37;1713213;83;25470;-58
2022/07/01 02:44:05;;;;;;;13.68;12.20;;;;;;;21.25;75.88;98146.97;1708585;83;25576;-59
2022/07/01 02:46:31;;;;;;;15.03;12.78;;;;;;;21.31;75.63;98147.36;1712968;83;27354;-63
2022/07/01 02:48:57;;;;;;;15.78;12.90;;;;;;;21.37;75.67;98144.95;1713270;82;25822;-62
2022/07/01 02:51:23;;;;;;;16.40;12.30;;;;;;;21.38;75.64;98155.70;1712873;83;25738;-63
2022/07/01 02:53:48;;;;;;;15.93;12.68;;;;;;;21.38;75.58;98150.13;1713281;83;25610;-62
2022/07/01 02:56:14;;;;;;;16.02;12.80;;;;;;;21.35;75.63;98150.92;1713203;83;25598;-63
2022/07/01 02:58:40;;;;;;;16.07;12.40;;;;;;;21.37;75.95;98150.53;1713289;83;27385;-63
2022/07/01 03:01:07;;;;;;;15.43;12.55;;;;;;;21.33;75.95;98146.37;1713160;83;25453;-61
2022/07/01 03:03:33;;;;;;;17.05;12.37;;;;;;;21.35;75.81;98144.55;1713111;83;25481;-62
2022/07/01 03:05:59;;;;;;;17.30;12.28;;;;;;;21.29;76.57;98146.95;1713229;83;25415;-63
2022/07/01 03:08:25;;;;;;;17.92;12.88;;;;;;;21.23;76.30;98152.13;1713087;83;25695;-60
2022/07/01 03:10:51;;;;;;;17.00;12.78;;;;;;;21.21;76.75;98160.08;1713355;83;27381;-64
2022/07/01 03:13:19;;;;;;;16.37;13.45;;;;;;;21.10;77.51;98160.08;1713067;83;25896;-63
2022/07/01 03:15:46;;;;;;;20.97;12.73;;;;;;;21.08;76.86;98163.08;1712872;83;25458;-64
2022/07/01 03:18:12;;;;;;;18.70;12.98;;;;;;;21.17;76.73;98176.02;1713279;83;25731;-63
2022/07/01 03:20:38;;;;;;;16.05;13.03;;;;;;;21.23;76.58;98183.37;1717750;82;25401;-63
2022/07/01 03:23:04;;;;;;;16.80;12.98;;;;;;;21.34;76.37;98181.98;1731460;82;27422;-63
2022/07/01 03:25:30;;;;;;;14.90;12.58;;;;;;;21.48;76.05;98184.77;1731451;82;25911;-64
2022/07/01 03:27:56;;;;;;;18.00;12.55;;;;;;;21.54;75.93;98185.16;1731552;81;25507;-64
2022/07/01 03:30:21;;;;;;;14.33;12.75;;;;;;;21.63;75.79;98182.76;1731562;82;26653;-63
2022/07/01 03:32:47;;;;;;;17.77;12.68;;;;;;;21.70;75.53;98190.30;1731729;82;25674;-64
2022/07/01 03:37:58;;;;;;;15.00;12.68;;;;;;;21.93;75.26;98201.05;1731040;82;25577;-64
2022/07/01 03:40:24;;;;;;;18.15;13.53;;;;;;;22.05;74.91;98202.59;1731587;82;25530;-64
2022/07/01 03:42:51;;;;;;;16.60;14.15;;;;;;;22.18;74.62;98200.18;1731631;82;25682;-63
2022/07/01 03:45:18;;;;;;;16.65;13.65;;;;;;;22.29;74.22;98207.12;1731651;82;25666;-63
2022/07/01 03:47:49;;;;;;;19.73;14.28;;;;;;;22.39;74.01;98217.26;1731540;82;28282;-64
2022/07/01 03:50:17;;;;;;;18.30;14.15;;;;;;;22.49;73.61;98221.19;1731078;82;25643;-64
2022/07/01 03:52:44;;;;;;;21.85;14.23;;;;;;;22.58;73.52;98216.55;1731406;82;25793;-65
2022/07/01 03:55:11;;;;;;;17.92;14.53;;;;;;;22.67;73.19;98214.14;1731249;82;25845;-64
2022/07/01 03:57:38;;;;;;;19.92;14.80;;;;;;;22.79;73.10;98213.69;1731212;82;25646;-63
2022/07/01 04:00:08;;;;;;;17.10;13.88;;;;;;;22.87;72.79;98215.84;1731643;82;27370;-63
2022/07/01 04:02:34;;;;;;;18.75;14.20;;;;;;;22.95;72.25;98212.39;1731440;82;25883;-64
2022/07/01 04:05:01;;;;;;;17.95;14.13;;;;;;;23.07;72.14;98218.10;1731557;82;25666;-64
2022/07/01 04:07:27;;;;;;;18.98;14.63;;;;;;;23.14;71.69;98218.04;1731287;82;25932;-64
2022/07/01 04:09:53;;;;;;;17.90;14.18;;;;;;;23.18;71.48;98218.03;1731741;82;25478;-64
2022/07/01 04:12:21;;;;;;;20.27;14.33;;;;;;;23.31;71.32;98223.31;1731646;82;27584;-63
2022/07/01 04:14:46;;;;;;;16.65;13.85;;;;;;;23.45;70.99;98228.62;1731377;82;25417;-64
2022/07/01 04:17:13;;;;;;;16.90;13.68;;;;;;;23.60;70.64;98220.90;1731386;82;25698;-64
2022/07/01 04:19:39;;;;;;;18.25;14.85;;;;;;;23.62;70.43;98225.48;1731164;82;25746;-65
2022/07/01 04:24:49;;;;;;;18.07;14.47;;;;;;;23.86;70.03;98231.24;1731226;82;26608;-62
2022/07/01 04:27:16;;;;;;;17.92;14.03;;;;;;;24.00;69.66;98221.14;1731507;82;25853;-63
2022/07/01 04:29:42;;;;;;;19.40;15.00;;;;;;;24.08;69.21;98217.63;1731245;82;25469;-63
2022/07/01 04:32:08;;;;;;;20.85;14.35;;;;;;;24.17;69.03;98220.16;1731691;82;25871;-63
2022/07/01 04:34:34;;;;;;;20.50;14.28;;;;;;;24.31;69.15;98217.80;1731260;82;25448;-64
2022/07/01 04:37:00;;;;;;;19.55;14.73;;;;;;;24.41;68.32;98217.47;1731523;82;27663;-64
2022/07/01 04:39:26;;;;;;;19.23;13.75;;;;;;;24.30;67.93;98215.42;1731344;82;25861;-61
2022/07/01 04:42:01;;;;;;;15.83;13.70;;;;;;;24.29;67.96;98216.61;1731637;82;25696;-63
2022/07/01 04:44:31;;;;;;;20.17;13.08;;;;;;;24.33;67.82;98208.19;1731307;82;25734;-62
2022/07/01 04:46:59;;;;;;;21.35;13.70;;;;;;;24.47;68.00;98210.02;1731392;82;25536;-63
2022/07/01 04:49:26;;;;;;;16.00;14.00;;;;;;;24.48;67.68;98206.80;1731605;82;27305;-62
2022/07/01 04:51:52;;;;;;;16.65;14.23;;;;;;;24.30;67.43;98205.00;1731318;82;25665;-65
2022/07/01 04:54:19;;;;;;;16.00;13.50;;;;;;;24.20;67.99;98205.92;1731506;82;25653;-65
2022/07/01 04:56:46;;;;;;;18.30;12.60;;;;;;;24.17;68.04;98206.76;1731286;82;25738;-65
2022/07/01 04:59:16;;;;;;;16.62;13.18;;;;;;;24.09;68.48;98217.22;1731356;82;25653;-64
2022/07/01 05:01:44;;;;;;;18.00;13.25;;;;;;;23.98;69.18;98208.96;1731530;82;30034;-65
2022/07/01 05:04:12;;;;;;;16.02;12.50;;;;;;;24.01;69.40;98212.30;1731073;82;25452;-65
2022/07/01 05:06:39;;;;;;;16.55;11.85;;;;;;;24.09;69.09;98217.84;1731209;82;25664;-65
2022/07/01 05:09:05;;;;;;;16.75;11.95;;;;;;;24.18;69.16;98211.94;1731367;82;25964;-65
2022/07/01 05:11:32;;;;;;;14.50;12.23;;;;;;;24.39;68.92;98211.52;1731393;82;25625;-66
2022/07/01 05:13:59;;;;;;;14.35;11.93;;;;;;;24.65;68.22;98203.58;1731348;82;27453;-65
2022/07/01 05:16:25;;;;;;;20.15;12.55;;;;;;;24.86;67.63;98212.88;1730981;82;25710;-66
2022/07/01 05:24:23;;;;;;;14.05;11.57;;;;;;;25.42;65.86;98215.85;1705910;84;25449;-63
2022/07/01 05:26:50;;;;;;;14.95;12.25;;;;;;;25.56;65.37;98217.63;1706088;84;27367;-65
2022/07/01 05:29:17;;;;;;;15.65;12.23;;;;;;;25.68;65.35;98213.44;1705661;84;25459;-64
2022/07/01 05:31:44;;;;;;;18.73;11.95;;;;;;;25.88;64.70;98218.92;1705854;84;25457;-64
2022/07/01 05:34:11;;;;;;;18.30;12.33;;;;;;;26.06;64.58;98215.77;1706071;84;25903;-65
2022/07/01 05:36:38;;;;;;;19.25;11.80;;;;;;;26.16;63.67;98218.98;1705995;84;25653;-64
2022/07/01 05:39:05;;;;;;;15.98;11.88;;;;;;;26.30;63.33;98208.10;1705886;84;27259;-65
2022/07/01 05:41:32;;;;;;;16.35;12.40;;;;;;;26.49;62.73;98214.14;1705763;84;25630;-65
2022/07/01 05:43:59;;;;;;;15.88;11.85;;;;;;;26.62;62.03;98214.26;1706063;84;25424;-63
2022/07/01 05:46:25;;;;;;;15.03;11.65;;;;;;;26.79;62.29;98207.27;1705850;84;25825;-66
2022/07/01 05:48:52;;;;;;;15.55;11.93;;;;;;;27.02;62.31;98203.56;1706097;84;25501;-65
2022/07/01 05:51:18;;;;;;;16.57;11.80;;;;;;;27.28;60.70;98202.34;1706342;84;27453;-64
2022/07/01 05:53:47;;;;;;;16.52;11.48;;;;;;;27.40;59.56;98203.66;1705691;84;25651;-65
2022/07/01 05:56:15;;;;;;;17.82;11.20;;;;;;;27.51;59.69;98194.14;1705898;84;25643;-65
2022/07/01 05:58:42;;;;;;;19.27;10.72;;;;;;;27.69;58.92;98195.14;1705876;84;25796;-64
2022/07/01 06:01:08;;;;;;;15.40;10.70;;;;;;;27.89;57.99;98199.20;1706113;84;25584;-60
2022/07/01 06:03:35;;;;;;;14.87;10.23;;;;;;;28.00;58.13;98203.78;1705955;84;27469;-63
2022/07/01 06:06:02;;;;;;;15.20;10.18;;;;;;;28.24;58.43;98203.51;1705808;84;25606;-64
2022/07/01 06:08:29;;;;;;;14.20;9.80;;;;;;;28.48;56.09;98202.64;1706056;84;25588;-66
2022/07/01 06:10:57;;;;;;;16.15;9.80;;;;;;;28.68;55.74;98196.01;1724100;83;25900;-62
2022/07/01 06:13:23;;;;;;;15.58;10.10;;;;;;;28.86;55.81;98192.63;1724465;83;25598;-65
2022/07/01 06:15:50;;;;;;;13.83;9.23;;;;;;;29.10;55.15;98191.53;1707597;83;27589;-64
2022/07/01 06:18:17;;;;;;;10.45;8.00;;;;;;;29.27;52.72;98200.66;1693831;84;25700;-63
2022/07/01 06:20:44;;;;;;;12.65;8.33;;;;;;;29.40;51.78;98201.42;1724281;83;25662;-58
2022/07/01 06:23:10;;;;;;;10.90;8.03;;;;;;;29.53;51.91;98202.02;1739228;82;25579;-58
2022/07/01 06:25:37;;;;;;;9.18;7.65;;;;;;;29.64;50.71;98203.86;1741955;81;25677;-57
2022/07/01 06:28:05;;;;;;;10.95;8.33;;;;;;;29.84;50.48;98197.77;1741951;81;27522;-63
2022/07/01 06:30:32;;;;;;;9.95;7.85;;;;;;;29.95;49.28;98198.78;1720516;83;25850;-66
2022/07/01 06:32:58;;;;;;;16.20;8.48;;;;;;;29.98;47.88;98197.86;1720642;83;25645;-66
2022/07/01 06:35:25;;;;;;;14.35;8.65;;;;;;;30.00;49.03;98199.61;1720375;83;25843;-66
2022/07/01 06:37:52;;;;;;;13.78;8.50;;;;;;;30.13;48.11;98196.74;1720551;83;25414;-65
2022/07/01 06:40:19;;;;;;;13.65;8.20;;;;;;;30.26;47.92;98198.10;1742327;82;27406;-66
2022/07/01 06:42:46;;;;;;;13.72;8.20;;;;;;;30.45;49.60;98201.05;1752438;81;25594;-66
2022/07/01 06:45:12;;;;;;;13.70;8.18;;;;;;;30.58;46.34;98199.53;1752376;81;25438;-64
2022/07/01 06:47:39;;;;;;;11.40;7.90;;;;;;;30.60;47.82;98202.70;1727877;83;25750;-66
2022/07/01 06:50:08;;;;;;;9.73;7.53;;;;;;;30.73;47.35;98205.42;1720427;83;25436;-65
2022/07/01 06:52:35;;;;;;;9.63;6.83;;;;;;;30.88;46.46;98199.40;1720832;83;28028;-63
2022/07/01 06:55:01;;;;;;;7.97;6.12;;;;;;;30.97;47.02;98199.28;1720435;83;25738;-65
2022/07/01 06:57:29;;;;;;;10.13;6.72;;;;;;;31.11;45.82;98197.92;1720624;83;25596;-63
2022/07/01 06:59:55;;;;;;;9.60;6.45;;;;;;;31.15;43.43;98208.46;1720866;83;25715;-65
2022/07/01 07:02:22;;;;;;;7.33;5.70;;;;;;;31.27;44.38;98217.47;1720707;83;25417;-65
2022/07/01 07:04:49;;;;;;;8.25;6.90;;;;;;;31.43;44.73;98214.23;1720500;83;27923;-64
2022/07/01 07:07:16;;;;;;;9.18;7.30;;;;;;;31.58;45.31;98218.66;1742072;82;25710;-66
2022/07/01 07:09:42;;;;;;;6.97;6.10;;;;;;;31.80;45.25;98219.13;1752388;80;25435;-64
2022/07/01 07:12:10;;;;;;;10.68;6.72;;;;;;;31.90;43.70;98225.60;1752444;80;25762;-64
2022/07/01 07:14:37;;;;;;;9.70;6.58;;;;;;;32.01;45.91;98230.18;1728144;83;25417;-65
2022/07/01 07:17:04;;;;;;;7.85;6.58;;;;;;;32.32;44.37;98221.34;1720641;83;27500;-66
2022/07/01 07:19:30;;;;;;;9.83;6.97;;;;;;;32.46;44.35;98219.91;1720575;83;25432;-66
2022/07/01 07:21:57;;;;;;;9.78;6.35;;;;;;;32.54;44.73;98217.55;1719478;83;25433;-65
2022/07/01 07:24:23;;;;;;;8.18;5.87;;;;;;;32.76;43.26;98216.55;1715792;83;25734;-65
2022/07/01 07:26:50;;;;;;;8.80;6.40;;;;;;;33.02;44.42;98218.35;1715685;83;25658;-63
2022/07/01 07:29:17;;;;;;;9.40;6.15;;;;;;;33.19;43.97;98229.95;1715832;83;27510;-65
2022/07/01 07:31:44;;;;;;;8.25;6.03;;;;;;;33.33;41.35;98229.27;1715863;83;25636;-63
2022/07/01 07:34:10;;;;;;;7.62;6.40;;;;;;;33.53;41.74;98225.05;1715975;83;25781;-63
2022/07/01 07:36:37;;;;;;;7.35;6.45;;;;;;;33.51;41.58;98226.16;1716008;83;25763;-61
2022/07/01 07:39:04;;;;;;;6.53;5.78;;;;;;;33.58;42.90;98224.36;1716048;83;25604;-62
2022/07/01 07:41:31;;;;;;;9.35;6.20;;;;;;;33.61;40.44;98229.10;1715686;83;27643;-61
2022/07/01 07:43:57;;;;;;;8.98;5.62;;;;;;;33.66;41.36;98228.45;1715531;83;25749;-62
2022/07/01 07:46:24;;;;;;;8.85;5.60;;;;;;;33.81;41.21;98228.35;1716100;83;25600;-62
2022/07/01 07:48:50;;;;;;;10.90;5.97;;;;;;;33.85;40.38;98231.16;1715624;83;25747;-63
2022/07/01 07:51:18;;;;;;;9.73;5.92;;;;;;;33.97;42.78;98217.95;1715754;83;25600;-62
2022/07/01 07:53:45;;;;;;;10.80;6.08;;;;;;;34.17;39.97;98225.08;1715651;82;27375;-65
2022/07/01 07:56:12;;;;;;;7.47;6.03;;;;;;;34.32;40.30;98222.88;1715661;83;25745;-64
2022/07/01 07:58:41;;;;;;;11.18;6.12;;;;;;;34.61;41.99;98227.79;1715862;83;25602;-64
2022/07/01 08:01:07;;;;;;;8.13;6.08;;;;;;;34.88;40.97;98228.00;1715462;83;25698;-64
2022/07/01 08:03:34;;;;;;;7.20;6.00;;;;;;;34.97;41.61;98231.36;1715751;83;25473;-64
2022/07/01 08:06:01;;;;;;;8.08;6.28;;;;;;;35.16;39.54;98229.84;1715785;83;27825;-64
2022/07/01 08:08:27;;;;;;;9.00;5.87;;;;;;;35.31;39.34;98231.12;1715559;83;25485;-62
2022/07/01 08:10:54;;;;;;;9.13;5.58;;;;;;;35.41;38.24;98224.80;1715830;83;25633;-58
2022/07/01 08:13:21;;;;;;;11.22;5.90;;;;;;;35.36;39.05;98229.77;1715750;82;25746;-63
2022/07/01 08:15:48;;;;;;;6.67;5.80;;;;;;;35.65;40.44;98235.83;1715869;83;25690;-59
2022/07/01 08:18:14;;;;;;;7.58;5.40;;;;;;;35.87;38.70;98236.80;1715711;83;27640;-63
2022/07/01 08:20:41;;;;;;;6.95;4.65;;;;;;;36.07;37.45;98228.71;1715530;83;25696;-60
2022/07/01 08:23:08;;;;;;;9.00;4.85;;;;;;;36.10;36.46;98225.66;1712094;83;25639;-60
2022/07/01 08:25:34;;;;;;;5.65;5.15;;;;;;;36.13;36.60;98228.92;1709104;84;25918;-60
2022/07/01 08:28:03;;;;;;;7.70;5.35;;;;;;;36.31;38.13;98229.11;1709015;84;25599;-64
2022/07/01 08:30:29;;;;;;;9.23;5.30;;;;;;;36.58;37.70;98227.80;1709178;83;27427;-64
2022/07/01 08:32:56;;;;;;;7.12;5.20;;;;;;;36.81;36.77;98230.11;1708862;84;25647;-62
2022/07/01 08:35:23;;;;;;;6.53;5.45;;;;;;;36.99;36.86;98229.73;1709141;83;25432;-63
2022/07/01 08:37:50;;;;;;;9.03;5.37;;;;;;;37.18;35.70;98226.47;1709070;84;26960;-59
2022/07/01 08:40:16;;;;;;;9.65;5.28;;;;;;;37.32;36.79;98223.34;1709139;83;25611;-63
2022/07/01 08:42:43;;;;;;;9.43;5.03;;;;;;;37.71;35.82;98229.80;1709260;84;27349;-64
2022/07/01 08:45:11;;;;;;;6.58;5.25;;;;;;;37.75;34.35;98233.97;1709284;84;25688;-64
2022/07/01 08:47:55;;;;;;;7.17;4.78;;;;;;;37.68;35.55;98228.72;1709456;84;25666;-63
2022/07/01 08:50:22;;;;;;;7.35;4.80;;;;;;;37.58;35.20;98237.39;1709041;83;25746;-64
2022/07/01 08:52:48;;;;;;;7.58;4.58;;;;;;;37.65;34.28;98236.23;1709386;84;25451;-64
2022/07/01 08:55:15;;;;;;;8.40;4.62;;;;;;;37.73;35.24;98233.69;1709326;84;28099;-64
2022/07/01 08:57:41;;;;;;;8.85;4.67;;;;;;;37.87;32.97;98227.64;1708851;84;25417;-64
2022/07/01 09:00:10;;;;;;;8.78;4.30;;;;;;;37.70;35.61;98226.14;1709018;84;25626;-64
2022/07/01 09:02:56;;;;;;;6.20;4.83;;;;;;;37.86;33.80;98227.52;1709539;83;25913;-62
2022/07/01 09:05:24;;;;;;;5.62;3.85;;;;;;;38.15;33.46;98227.59;1659218;85;25670;-65
2022/07/01 09:07:58;;;;;;;6.83;3.43;;;;;;;38.25;31.96;98227.50;1650723;84;27439;-62
2022/07/01 09:10:26;;;;;;;5.00;3.50;;;;;;;38.31;30.64;98221.02;1637286;86;27224;-62
2022/07/01 09:12:52;;;;;;;5.75;3.50;;;;;;;38.35;31.87;98228.05;1630835;88;25492;-63
2022/07/01 09:15:30;;;;;;;7.10;3.67;;;;;;;38.51;29.81;98226.50;1631197;87;25882;-64
2022/07/01 09:18:17;;;;;;;10.48;3.50;;;;;;;38.74;30.74;98223.66;1627586;87;25786;-63
2022/07/01 09:20:50;;;;;;;6.85;3.20;;;;;;;38.84;28.67;98223.41;1631059;87;27631;-64
2022/07/01 09:23:18;;;;;;;4.58;3.47;;;;;;;38.89;28.82;98227.72;1624145;87;25666;-65
2022/07/01 09:25:48;;;;;;;6.87;3.85;;;;;;;38.73;29.03;98227.84;1617140;88;26217;-65
2022/07/01 09:28:19;;;;;;;5.03;3.70;;;;;;;38.74;32.64;98235.12;1616720;88;25861;-65
2022/07/01 09:30:50;;;;;;;6.78;3.72;;;;;;;39.04;30.69;98232.37;1617186;87;25846;-65
2022/07/01 09:33:24;;;;;;;5.65;3.45;;;;;;;39.27;30.12;98237.45;1616677;88;27509;-64
2022/07/01 09:35:50;;;;;;;6.33;3.60;;;;;;;39.13;28.50;98232.13;1616930;88;25808;-63
2022/07/01 09:38:20;;;;;;;7.85;3.52;;;;;;;39.15;30.31;98237.34;1616860;88;25522;-64
2022/07/01 09:40:54;;;;;;;5.25;3.45;;;;;;;39.15;28.41;98233.83;1634236;85;25898;-63
2022/07/01 09:43:27;;;;;;;6.22;3.42;;;;;;;39.27;29.71;98236.66;1686328;84;25659;-62
2022/07/01 09:46:04;;;;;;;5.58;3.50;;;;;;;39.25;29.26;98231.45;1686134;84;27414;-61
2022/07/01 09:48:38;;;;;;;5.58;3.25;;;;;;;39.53;28.58;98241.27;1686205;85;25738;-63
2022/07/01 09:51:08;;;;;;;4.20;3.35;;;;;;;39.56;28.72;98241.66;1686177;85;25501;-60
2022/07/01 09:53:35;;;;;;;6.72;3.67;;;;;;;39.71;28.62;98233.44;1686422;84;25690;-64
2022/07/01 09:56:03;;;;;;;7.35;3.92;;;;;;;39.67;27.78;98231.47;1685892;84;25715;-63
2022/07/01 09:58:32;;;;;;;4.55;3.20;;;;;;;39.87;28.61;98234.01;1686338;85;27428;-62
2022/07/01 10:01:01;;;;;;;5.23;3.90;;;;;;;39.94;27.68;98229.78;1686333;84;25414;-63
2022/07/01 10:03:32;;;;;;;6.47;3.72;;;;;;;39.87;28.31;98229.70;1686232;85;37066;-63
2022/07/01 10:06:36;;;;;;;5.67;3.50;;;;;;;39.92;27.76;98225.90;1686533;84;25683;-64
2022/07/01 10:09:37;;;;;;;5.33;3.10;;;;;;;40.02;28.28;98231.44;1686188;84;25590;-64
2022/07/01 10:12:30;;;;;;;5.67;3.20;;;;;;;40.39;26.86;98229.42;1685598;85;27385;-62
2022/07/01 10:14:59;;;;;;;5.75;3.25;;;;;;;40.01;26.88;98224.91;1686357;84;25853;-65
2022/07/01 10:17:43;;;;;;;5.17;3.20;;;;;;;40.27;27.25;98229.48;1686281;85;25748;-64
2022/07/01 10:20:17;;;;;;;5.08;3.47;;;;;;;40.45;26.40;98224.42;1686450;84;25780;-64
2022/07/01 10:22:44;;;;;;;5.72;2.98;;;;;;;40.21;27.82;98220.16;1686877;83;25481;-64
2022/07/01 10:25:48;;;;;;;5.30;3.35;;;;;;;40.40;26.03;98222.36;1696538;84;28116;-63
2022/07/01 10:28:32;;;;;;;4.47;3.20;;;;;;;40.59;27.24;98223.16;1696482;84;25927;-64
2022/07/01 10:31:06;;;;;;;4.45;3.17;;;;;;;40.91;27.34;98216.87;1694609;84;25629;-63
2022/07/01 10:33:46;;;;;;;5.92;3.12;;;;;;;41.25;26.53;98217.23;1696378;84;25780;-64
2022/07/01 10:36:24;;;;;;;5.62;3.10;;;;;;;41.45;27.67;98218.08;1696788;84;25495;-64
2022/07/01 10:39:08;;;;;;;6.00;3.20;;;;;;;41.47;24.81;98211.89;1696454;84;27503;-64
2022/07/01 10:41:39;;;;;;;4.62;2.80;;;;;;;41.18;25.33;98214.95;1696792;84;25465;-64
2022/07/01 10:44:12;;;;;;;3.85;3.10;;;;;;;40.67;25.50;98211.23;1696330;84;25717;-63
2022/07/01 10:46:56;;;;;;;3.50;2.77;;;;;;;40.21;27.49;98213.62;1695690;84;25851;-61
2022/07/01 10:49:22;;;;;;;4.62;2.85;;;;;;;40.22;28.45;98208.00;1696174;84;25697;-64
2022/07/01 10:51:54;;;;;;;5.72;2.87;;;;;;;40.35;29.38;98202.42;1696514;84;27486;-64
2022/07/01 10:54:45;;;;;;;6.35;3.00;;;;;;;40.80;27.65;98200.53;1696583;84;25825;-63
2022/07/01 10:57:24;;;;;;;3.75;2.62;;;;;;;41.34;26.17;98204.58;1696633;84;25911;-64
2022/07/01 11:00:00;;;;;;;8.08;2.80;;;;;;;41.70;25.15;98203.66;1696610;84;25802;-62
2022/07/01 11:02:38;;;;;;;5.75;2.67;;;;;;;42.00;25.04;98211.38;1696955;84;25425;-63
2022/07/01 11:05:12;;;;;;;4.97;2.87;;;;;;;42.22;23.02;98200.88;1696954;84;27608;-62
2022/07/01 11:07:44;;;;;;;5.22;2.62;;;;;;;42.33;25.13;98194.95;1695535;84;25637;-60
2022/07/01 11:10:13;;;;;;;4.92;2.60;;;;;;;42.46;22.96;98196.33;1696825;84;25701;-64
2022/07/01 11:12:40;;;;;;;;;;;;;;;42.36;23.60;98186.66;1699022;84;25702;-59
2022/07/01 11:15:10;;;;;;;5.20;2.90;;;;;;;42.51;24.20;98186.83;1696755;84;25471;-60
2022/07/01 11:17:43;;;;;;;3.72;2.70;;;;;;;42.54;23.26;98184.95;1696551;84;27428;-62
2022/07/01 11:20:11;;;;;;;3.67;2.60;;;;;;;42.61;23.54;98184.30;1696493;84;25718;-60
2022/07/01 11:22:38;;;;;;;5.33;2.52;;;;;;;42.70;21.54;98181.67;1695472;81;25886;-61
2022/07/01 11:25:11;;;;;;;3.77;2.37;;;;;;;42.38;22.09;98171.72;1719679;81;26606;-63
2022/07/01 11:27:40;;;;;;;4.20;2.33;;;;;;;42.40;23.80;98179.16;1723283;82;25508;-62
2022/07/01 11:30:12;;;;;;;4.08;2.80;;;;;;;42.84;22.49;98173.19;1740696;81;27371;-63
2022/07/01 11:32:42;;;;;;;4.10;2.80;;;;;;;42.48;22.69;98172.09;1724639;83;25742;-63
2022/07/01 11:41:21;;;;;;;5.40;2.52;;;;;;;43.15;22.38;98167.13;1695766;84;25799;-60
2022/07/01 11:43:48;;;;;;;4.42;2.62;;;;;;;43.21;22.43;98164.13;1693044;84;27834;-63
2022/07/01 11:46:15;;;;;;;3.98;2.72;;;;;;;43.44;23.95;98156.45;1695420;84;25741;-62
2022/07/01 11:48:49;;;;;;;4.55;2.55;;;;;;;43.31;21.42;98158.02;1695580;84;25784;-63